sensor_id;sensor_type;location;lat;lon;timestamp;P1;durP1;ratioP1;P2;durP2;ratioP2
60018;SDS011;45870;42.528;26.740;2023-03-01T00:01:05;0.65;;;0.20;;
60018;SDS011;45870;42.528;26.740;2023-03-01T00:03:32;0.00;;;0.00;;
60018;SDS011;45870;42.528;26.740;2023-03-01T00:05:59;0.00;;;0.00;;
60018;SDS011;45870;42.528;26.740;2023-03-01T00:08:25;0.38;;;0.35;;
60018;SDS011;45870;42.528;26.740;2023-03-01T00:11:03;0.00;;;0.00;;
60018;SDS011;45870;42.528;26.740;2023-03-01T00:13:30;0.32;;;0.13;;
60018;SDS011;45870;42.528;26.740;2023-03-01T00:15:56;0.43;;;0.13;;
60018;SDS011;45870;42.528;26.740;2023-03-01T00:18:21;0.28;;;0.22;;
60018;SDS011;45870;42.528;26.740;2023-03-01T00:20:52;0.15;;;0.15;;
60018;SDS011;45870;42.528;26.740;2023-03-01T00:23:18;0.00;;;0.00;;
60018;SDS011;45870;42.528;26.740;2023-03-01T00:25:44;0.00;;;0.00;;
60018;SDS011;45870;42.528;26.740;2023-03-01T00:28:10;0.30;;;0.20;;
60018;SDS011;45870;42.528;26.740;2023-03-01T00:30:37;0.00;;;0.00;;
60018;SDS011;45870;42.528;26.740;2023-03-01T00:33:03;0.10;;;0.10;;
60018;SDS011;45870;42.528;26.740;2023-03-01T00:35:29;0.93;;;0.25;;
60018;SDS011;45870;42.528;26.740;2023-03-01T00:37:55;0.22;;;0.22;;
60018;SDS011;45870;42.528;26.740;2023-03-01T00:40:28;0.20;;;0.20;;
60018;SDS011;45870;42.528;26.740;2023-03-01T00:42:54;0.00;;;0.00;;
60018;SDS011;45870;42.528;26.740;2023-03-01T00:45:20;0.00;;;0.00;;
60018;SDS011;45870;42.528;26.740;2023-03-01T00:47:47;0.15;;;0.15;;
60018;SDS011;45870;42.528;26.740;2023-03-01T00:50:13;0.03;;;0.00;;
60018;SDS011;45870;42.528;26.740;2023-03-01T00:52:39;0.10;;;0.05;;
60018;SDS011;45870;42.528;26.740;2023-03-01T00:55:05;0.13;;;0.13;;
60018;SDS011;45870;42.528;26.740;2023-03-01T00:57:31;0.20;;;0.20;;
60018;SDS011;45870;42.528;26.740;2023-03-01T00:59:57;0.43;;;0.30;;
60018;SDS011;45870;42.528;26.740;2023-03-01T01:02:23;0.05;;;0.05;;
60018;SDS011;45870;42.528;26.740;2023-03-01T01:04:49;0.20;;;0.10;;
60018;SDS011;45870;42.528;26.740;2023-03-01T01:07:14;0.20;;;0.20;;
60018;SDS011;45870;42.528;26.740;2023-03-01T01:09:40;0.30;;;0.20;;
60018;SDS011;45870;42.528;26.740;2023-03-01T01:12:07;0.25;;;0.25;;
60018;SDS011;45870;42.528;26.740;2023-03-01T01:14:33;0.00;;;0.00;;
60018;SDS011;45870;42.528;26.740;2023-03-01T01:16:59;0.15;;;0.00;;
60018;SDS011;45870;42.528;26.740;2023-03-01T01:19:25;0.00;;;0.00;;
60018;SDS011;45870;42.528;26.740;2023-03-01T01:21:51;0.10;;;0.10;;
60018;SDS011;45870;42.528;26.740;2023-03-01T01:24:17;0.00;;;0.00;;
60018;SDS011;45870;42.528;26.740;2023-03-01T01:26:43;0.30;;;0.10;;
60018;SDS011;45870;42.528;26.740;2023-03-01T01:29:10;0.00;;;0.00;;
60018;SDS011;45870;42.528;26.740;2023-03-01T01:31:37;0.10;;;0.10;;
60018;SDS011;45870;42.528;26.740;2023-03-01T01:34:04;0.20;;;0.10;;
60018;SDS011;45870;42.528;26.740;2023-03-01T01:36:32;0.10;;;0.00;;
60018;SDS011;45870;42.528;26.740;2023-03-01T01:38:58;0.00;;;0.00;;
60018;SDS011;45870;42.528;26.740;2023-03-01T01:41:25;1.13;;;0.57;;
60018;SDS011;45870;42.528;26.740;2023-03-01T01:44:14;0.00;;;0.00;;
60018;SDS011;45870;42.528;26.740;2023-03-01T01:47:02;0.03;;;0.03;;
60018;SDS011;45870;42.528;26.740;2023-03-01T01:52:22;0.00;;;0.00;;
60018;SDS011;45870;42.528;26.740;2023-03-01T01:54:53;0.13;;;0.13;;
60018;SDS011;45870;42.528;26.740;2023-03-01T01:57:22;0.00;;;0.00;;
60018;SDS011;45870;42.528;26.740;2023-03-01T01:59:53;1.13;;;0.55;;
60018;SDS011;45870;42.528;26.740;2023-03-01T02:02:24;0.00;;;0.00;;
60018;SDS011;45870;42.528;26.740;2023-03-01T02:04:52;0.10;;;0.10;;
60018;SDS011;45870;42.528;26.740;2023-03-01T02:07:28;0.08;;;0.00;;
60018;SDS011;45870;42.528;26.740;2023-03-01T02:09:55;0.10;;;0.10;;
60018;SDS011;45870;42.528;26.740;2023-03-01T02:12:22;0.00;;;0.00;;
60018;SDS011;45870;42.528;26.740;2023-03-01T02:14:49;2.65;;;0.38;;
60018;SDS011;45870;42.528;26.740;2023-03-01T02:17:15;0.10;;;0.10;;
60018;SDS011;45870;42.528;26.740;2023-03-01T02:22:43;0.20;;;0.05;;
60018;SDS011;45870;42.528;26.740;2023-03-01T02:30:12;0.10;;;0.10;;
60018;SDS011;45870;42.528;26.740;2023-03-01T02:32:39;0.17;;;0.10;;
60018;SDS011;45870;42.528;26.740;2023-03-01T02:35:07;0.63;;;0.10;;
60018;SDS011;45870;42.528;26.740;2023-03-01T02:37:36;0.25;;;0.25;;
60018;SDS011;45870;42.528;26.740;2023-03-01T02:40:03;0.63;;;0.30;;
60018;SDS011;45870;42.528;26.740;2023-03-01T02:42:37;0.10;;;0.10;;
60018;SDS011;45870;42.528;26.740;2023-03-01T02:45:10;0.17;;;0.17;;
60018;SDS011;45870;42.528;26.740;2023-03-01T02:47:36;0.17;;;0.17;;
60018;SDS011;45870;42.528;26.740;2023-03-01T02:50:02;0.65;;;0.52;;
60018;SDS011;45870;42.528;26.740;2023-03-01T02:52:45;0.00;;;0.00;;
60018;SDS011;45870;42.528;26.740;2023-03-01T02:55:22;0.10;;;0.05;;
60018;SDS011;45870;42.528;26.740;2023-03-01T02:57:48;0.82;;;0.30;;
60018;SDS011;45870;42.528;26.740;2023-03-01T03:00:21;0.57;;;0.40;;
60018;SDS011;45870;42.528;26.740;2023-03-01T03:02:52;0.10;;;0.10;;
60018;SDS011;45870;42.528;26.740;2023-03-01T03:05:20;0.00;;;0.00;;
60018;SDS011;45870;42.528;26.740;2023-03-01T03:07:48;0.00;;;0.00;;
60018;SDS011;45870;42.528;26.740;2023-03-01T03:10:16;0.00;;;0.00;;
60018;SDS011;45870;42.528;26.740;2023-03-01T03:12:50;0.15;;;0.15;;
60018;SDS011;45870;42.528;26.740;2023-03-01T03:15:23;0.17;;;0.17;;
60018;SDS011;45870;42.528;26.740;2023-03-01T03:17:51;0.05;;;0.00;;
60018;SDS011;45870;42.528;26.740;2023-03-01T03:20:19;0.05;;;0.05;;
60018;SDS011;45870;42.528;26.740;2023-03-01T03:22:48;0.25;;;0.15;;
60018;SDS011;45870;42.528;26.740;2023-03-01T03:25:16;0.30;;;0.22;;
60018;SDS011;45870;42.528;26.740;2023-03-01T03:27:43;0.77;;;0.60;;
60018;SDS011;45870;42.528;26.740;2023-03-01T03:30:11;0.65;;;0.55;;
60018;SDS011;45870;42.528;26.740;2023-03-01T03:32:39;0.38;;;0.38;;
60018;SDS011;45870;42.528;26.740;2023-03-01T03:35:08;0.68;;;0.43;;
60018;SDS011;45870;42.528;26.740;2023-03-01T03:37:38;0.50;;;0.40;;
60018;SDS011;45870;42.528;26.740;2023-03-01T03:40:23;0.22;;;0.22;;
60018;SDS011;45870;42.528;26.740;2023-03-01T03:42:49;1.23;;;0.32;;
60018;SDS011;45870;42.528;26.740;2023-03-01T03:45:15;0.10;;;0.10;;
60018;SDS011;45870;42.528;26.740;2023-03-01T03:47:42;0.35;;;0.35;;
60018;SDS011;45870;42.528;26.740;2023-03-01T03:50:09;0.30;;;0.17;;
60018;SDS011;45870;42.528;26.740;2023-03-01T03:52:37;0.60;;;0.30;;
60018;SDS011;45870;42.528;26.740;2023-03-01T03:55:03;0.10;;;0.00;;
60018;SDS011;45870;42.528;26.740;2023-03-01T03:57:34;0.20;;;0.20;;
60018;SDS011;45870;42.528;26.740;2023-03-01T04:00:01;1.05;;;0.85;;
60018;SDS011;45870;42.528;26.740;2023-03-01T04:02:30;0.60;;;0.22;;
60018;SDS011;45870;42.528;26.740;2023-03-01T04:04:55;0.30;;;0.15;;
60018;SDS011;45870;42.528;26.740;2023-03-01T04:07:21;0.00;;;0.00;;
60018;SDS011;45870;42.528;26.740;2023-03-01T04:09:47;0.28;;;0.25;;
60018;SDS011;45870;42.528;26.740;2023-03-01T04:12:12;0.28;;;0.28;;
60018;SDS011;45870;42.528;26.740;2023-03-01T04:14:38;0.20;;;0.20;;
60018;SDS011;45870;42.528;26.740;2023-03-01T04:17:04;0.10;;;0.10;;
60018;SDS011;45870;42.528;26.740;2023-03-01T04:19:31;0.28;;;0.28;;
60018;SDS011;45870;42.528;26.740;2023-03-01T04:22:02;0.32;;;0.22;;
60018;SDS011;45870;42.528;26.740;2023-03-01T04:24:37;0.00;;;0.00;;
60018;SDS011;45870;42.528;26.740;2023-03-01T04:27:03;0.10;;;0.10;;
60018;SDS011;45870;42.528;26.740;2023-03-01T04:29:29;0.68;;;0.57;;
60018;SDS011;45870;42.528;26.740;2023-03-01T04:31:55;0.20;;;0.20;;
60018;SDS011;45870;42.528;26.740;2023-03-01T04:34:20;0.50;;;0.30;;
60018;SDS011;45870;42.528;26.740;2023-03-01T04:36:46;0.47;;;0.20;;
60018;SDS011;45870;42.528;26.740;2023-03-01T04:39:12;0.03;;;0.03;;
60018;SDS011;45870;42.528;26.740;2023-03-01T04:41:38;0.28;;;0.13;;
60018;SDS011;45870;42.528;26.740;2023-03-01T04:44:05;0.20;;;0.20;;
60018;SDS011;45870;42.528;26.740;2023-03-01T04:46:31;0.30;;;0.28;;
60018;SDS011;45870;42.528;26.740;2023-03-01T04:48:57;0.00;;;0.00;;
60018;SDS011;45870;42.528;26.740;2023-03-01T04:51:23;0.15;;;0.15;;
60018;SDS011;45870;42.528;26.740;2023-03-01T04:53:48;0.95;;;0.13;;
60018;SDS011;45870;42.528;26.740;2023-03-01T04:56:15;0.75;;;0.20;;
60018;SDS011;45870;42.528;26.740;2023-03-01T04:58:42;0.20;;;0.17;;
60018;SDS011;45870;42.528;26.740;2023-03-01T05:01:13;0.45;;;0.20;;
60018;SDS011;45870;42.528;26.740;2023-03-01T05:03:44;0.10;;;0.10;;
60018;SDS011;45870;42.528;26.740;2023-03-01T05:06:12;0.20;;;0.20;;
60018;SDS011;45870;42.528;26.740;2023-03-01T05:08:38;0.75;;;0.32;;
60018;SDS011;45870;42.528;26.740;2023-03-01T05:11:05;0.38;;;0.08;;
60018;SDS011;45870;42.528;26.740;2023-03-01T05:13:34;0.00;;;0.00;;
60018;SDS011;45870;42.528;26.740;2023-03-01T05:16:01;0.13;;;0.10;;
60018;SDS011;45870;42.528;26.740;2023-03-01T05:18:30;0.00;;;0.00;;
60018;SDS011;45870;42.528;26.740;2023-03-01T05:21:09;0.00;;;0.00;;
60018;SDS011;45870;42.528;26.740;2023-03-01T05:23:37;0.30;;;0.30;;
60018;SDS011;45870;42.528;26.740;2023-03-01T05:26:03;0.10;;;0.10;;
60018;SDS011;45870;42.528;26.740;2023-03-01T05:28:30;0.00;;;0.00;;
60018;SDS011;45870;42.528;26.740;2023-03-01T05:30:57;0.82;;;0.47;;
60018;SDS011;45870;42.528;26.740;2023-03-01T05:33:23;0.03;;;0.03;;
60018;SDS011;45870;42.528;26.740;2023-03-01T05:35:50;0.10;;;0.10;;
60018;SDS011;45870;42.528;26.740;2023-03-01T05:38:19;0.00;;;0.00;;
60018;SDS011;45870;42.528;26.740;2023-03-01T05:40:46;0.10;;;0.10;;
60018;SDS011;45870;42.528;26.740;2023-03-01T05:43:14;0.03;;;0.03;;
60018;SDS011;45870;42.528;26.740;2023-03-01T05:45:41;0.00;;;0.00;;
60018;SDS011;45870;42.528;26.740;2023-03-01T05:48:08;0.10;;;0.10;;
60018;SDS011;45870;42.528;26.740;2023-03-01T05:50:39;0.30;;;0.20;;
60018;SDS011;45870;42.528;26.740;2023-03-01T05:53:13;0.05;;;0.05;;
60018;SDS011;45870;42.528;26.740;2023-03-01T05:55:42;0.00;;;0.00;;
60018;SDS011;45870;42.528;26.740;2023-03-01T05:58:11;0.13;;;0.13;;
60018;SDS011;45870;42.528;26.740;2023-03-01T06:00:39;0.43;;;0.30;;
60018;SDS011;45870;42.528;26.740;2023-03-01T06:03:05;0.10;;;0.10;;
60018;SDS011;45870;42.528;26.740;2023-03-01T06:05:30;0.45;;;0.22;;
60018;SDS011;45870;42.528;26.740;2023-03-01T06:08:00;0.13;;;0.13;;
60018;SDS011;45870;42.528;26.740;2023-03-01T06:10:27;0.00;;;0.00;;
60018;SDS011;45870;42.528;26.740;2023-03-01T06:12:52;0.10;;;0.10;;
60018;SDS011;45870;42.528;26.740;2023-03-01T06:15:18;0.03;;;0.03;;
60018;SDS011;45870;42.528;26.740;2023-03-01T06:17:44;0.00;;;0.00;;
60018;SDS011;45870;42.528;26.740;2023-03-01T06:20:15;3.25;;;0.45;;
60018;SDS011;45870;42.528;26.740;2023-03-01T06:22:42;0.00;;;0.00;;
60018;SDS011;45870;42.528;26.740;2023-03-01T06:25:09;0.10;;;0.10;;
60018;SDS011;45870;42.528;26.740;2023-03-01T06:27:35;0.00;;;0.00;;
60018;SDS011;45870;42.528;26.740;2023-03-01T06:30:02;4.35;;;0.70;;
60018;SDS011;45870;42.528;26.740;2023-03-01T06:32:28;0.17;;;0.10;;
60018;SDS011;45870;42.528;26.740;2023-03-01T06:34:55;0.03;;;0.03;;
60018;SDS011;45870;42.528;26.740;2023-03-01T06:37:23;0.85;;;0.45;;
60018;SDS011;45870;42.528;26.740;2023-03-01T06:39:50;0.08;;;0.08;;
60018;SDS011;45870;42.528;26.740;2023-03-01T06:42:15;0.43;;;0.10;;
60018;SDS011;45870;42.528;26.740;2023-03-01T06:44:41;0.00;;;0.00;;
60018;SDS011;45870;42.528;26.740;2023-03-01T06:47:07;0.10;;;0.10;;
60018;SDS011;45870;42.528;26.740;2023-03-01T06:49:32;0.10;;;0.10;;
60018;SDS011;45870;42.528;26.740;2023-03-01T06:51:58;0.13;;;0.13;;
60018;SDS011;45870;42.528;26.740;2023-03-01T06:54:24;0.00;;;0.00;;
60018;SDS011;45870;42.528;26.740;2023-03-01T06:56:49;0.10;;;0.10;;
60018;SDS011;45870;42.528;26.740;2023-03-01T06:59:16;0.10;;;0.10;;
60018;SDS011;45870;42.528;26.740;2023-03-01T07:01:42;0.55;;;0.47;;
60018;SDS011;45870;42.528;26.740;2023-03-01T07:04:09;0.13;;;0.13;;
60018;SDS011;45870;42.528;26.740;2023-03-01T07:06:35;0.50;;;0.47;;
60018;SDS011;45870;42.528;26.740;2023-03-01T07:09:01;1.20;;;0.80;;
60018;SDS011;45870;42.528;26.740;2023-03-01T07:11:27;0.95;;;0.47;;
60018;SDS011;45870;42.528;26.740;2023-03-01T07:13:52;0.17;;;0.05;;
60018;SDS011;45870;42.528;26.740;2023-03-01T07:16:18;0.40;;;0.20;;
60018;SDS011;45870;42.528;26.740;2023-03-01T07:18:45;0.28;;;0.28;;
60018;SDS011;45870;42.528;26.740;2023-03-01T07:21:12;0.10;;;0.10;;
60018;SDS011;45870;42.528;26.740;2023-03-01T07:23:39;0.70;;;0.32;;
60018;SDS011;45870;42.528;26.740;2023-03-01T07:26:05;0.00;;;0.00;;
60018;SDS011;45870;42.528;26.740;2023-03-01T07:28:30;0.30;;;0.25;;
60018;SDS011;45870;42.528;26.740;2023-03-01T07:31:02;0.20;;;0.20;;
60018;SDS011;45870;42.528;26.740;2023-03-01T07:33:28;0.28;;;0.17;;
60018;SDS011;45870;42.528;26.740;2023-03-01T07:35:58;1.35;;;0.47;;
60018;SDS011;45870;42.528;26.740;2023-03-01T07:38:24;1.23;;;0.65;;
60018;SDS011;45870;42.528;26.740;2023-03-01T07:40:51;1.00;;;0.65;;
60018;SDS011;45870;42.528;26.740;2023-03-01T07:43:16;1.13;;;0.40;;
60018;SDS011;45870;42.528;26.740;2023-03-01T07:45:42;0.40;;;0.38;;
60018;SDS011;45870;42.528;26.740;2023-03-01T07:48:08;1.55;;;0.45;;
60018;SDS011;45870;42.528;26.740;2023-03-01T07:50:33;1.20;;;1.00;;
60018;SDS011;45870;42.528;26.740;2023-03-01T07:52:59;0.08;;;0.08;;
60018;SDS011;45870;42.528;26.740;2023-03-01T07:55:24;0.00;;;0.00;;
60018;SDS011;45870;42.528;26.740;2023-03-01T07:57:50;2.35;;;0.47;;
60018;SDS011;45870;42.528;26.740;2023-03-01T08:00:16;0.10;;;0.10;;
60018;SDS011;45870;42.528;26.740;2023-03-01T08:02:42;5.38;;;1.25;;
60018;SDS011;45870;42.528;26.740;2023-03-01T08:05:08;0.80;;;0.57;;
60018;SDS011;45870;42.528;26.740;2023-03-01T08:07:35;0.10;;;0.10;;
60018;SDS011;45870;42.528;26.740;2023-03-01T08:10:00;1.38;;;0.60;;
60018;SDS011;45870;42.528;26.740;2023-03-01T08:12:26;1.05;;;0.43;;
60018;SDS011;45870;42.528;26.740;2023-03-01T08:14:53;1.83;;;0.45;;
60018;SDS011;45870;42.528;26.740;2023-03-01T08:17:19;1.85;;;0.70;;
60018;SDS011;45870;42.528;26.740;2023-03-01T08:19:45;0.77;;;0.65;;
60018;SDS011;45870;42.528;26.740;2023-03-01T08:22:11;1.38;;;0.52;;
60018;SDS011;45870;42.528;26.740;2023-03-01T08:24:36;0.65;;;0.65;;
60018;SDS011;45870;42.528;26.740;2023-03-01T08:27:03;1.45;;;0.47;;
60018;SDS011;45870;42.528;26.740;2023-03-01T08:29:32;0.47;;;0.40;;
60018;SDS011;45870;42.528;26.740;2023-03-01T08:31:58;0.80;;;0.63;;
60018;SDS011;45870;42.528;26.740;2023-03-01T08:34:24;0.10;;;0.10;;
60018;SDS011;45870;42.528;26.740;2023-03-01T08:36:50;0.22;;;0.10;;
60018;SDS011;45870;42.528;26.740;2023-03-01T08:39:17;0.28;;;0.22;;
60018;SDS011;45870;42.528;26.740;2023-03-01T08:41:45;1.40;;;0.55;;
60018;SDS011;45870;42.528;26.740;2023-03-01T08:44:12;0.30;;;0.30;;
60018;SDS011;45870;42.528;26.740;2023-03-01T08:46:40;0.20;;;0.20;;
60018;SDS011;45870;42.528;26.740;2023-03-01T08:49:07;1.48;;;0.70;;
60018;SDS011;45870;42.528;26.740;2023-03-01T08:51:34;1.05;;;0.45;;
60018;SDS011;45870;42.528;26.740;2023-03-01T08:54:04;1.65;;;0.80;;
60018;SDS011;45870;42.528;26.740;2023-03-01T08:56:31;0.73;;;0.70;;
60018;SDS011;45870;42.528;26.740;2023-03-01T08:58:56;0.30;;;0.28;;
60018;SDS011;45870;42.528;26.740;2023-03-01T09:01:22;0.80;;;0.43;;
60018;SDS011;45870;42.528;26.740;2023-03-01T09:03:49;1.45;;;0.57;;
60018;SDS011;45870;42.528;26.740;2023-03-01T09:06:14;0.77;;;0.43;;
60018;SDS011;45870;42.528;26.740;2023-03-01T09:08:41;0.47;;;0.47;;
60018;SDS011;45870;42.528;26.740;2023-03-01T09:11:09;0.82;;;0.40;;
60018;SDS011;45870;42.528;26.740;2023-03-01T09:13:37;0.20;;;0.20;;
60018;SDS011;45870;42.528;26.740;2023-03-01T09:16:04;0.38;;;0.38;;
60018;SDS011;45870;42.528;26.740;2023-03-01T09:18:32;1.40;;;1.17;;
60018;SDS011;45870;42.528;26.740;2023-03-01T09:21:03;0.13;;;0.13;;
60018;SDS011;45870;42.528;26.740;2023-03-01T09:23:37;1.17;;;0.40;;
60018;SDS011;45870;42.528;26.740;2023-03-01T09:26:13;1.25;;;0.77;;
60018;SDS011;45870;42.528;26.740;2023-03-01T09:28:47;0.32;;;0.20;;
60018;SDS011;45870;42.528;26.740;2023-03-01T09:31:16;1.58;;;0.75;;
60018;SDS011;45870;42.528;26.740;2023-03-01T09:33:45;4.47;;;1.65;;
60018;SDS011;45870;42.528;26.740;2023-03-01T09:36:14;0.57;;;0.20;;
60018;SDS011;45870;42.528;26.740;2023-03-01T09:38:41;0.43;;;0.32;;
60018;SDS011;45870;42.528;26.740;2023-03-01T09:41:17;0.70;;;0.45;;
60018;SDS011;45870;42.528;26.740;2023-03-01T09:43:53;2.63;;;0.65;;
60018;SDS011;45870;42.528;26.740;2023-03-01T09:46:25;0.30;;;0.20;;
60018;SDS011;45870;42.528;26.740;2023-03-01T09:48:54;1.95;;;0.38;;
60018;SDS011;45870;42.528;26.740;2023-03-01T09:51:33;1.92;;;0.98;;
60018;SDS011;45870;42.528;26.740;2023-03-01T09:54:01;2.10;;;1.80;;
60018;SDS011;45870;42.528;26.740;2023-03-01T09:59:23;0.22;;;0.22;;
60018;SDS011;45870;42.528;26.740;2023-03-01T10:05:06;1.75;;;0.75;;
60018;SDS011;45870;42.528;26.740;2023-03-01T10:08:01;2.60;;;0.90;;
60018;SDS011;45870;42.528;26.740;2023-03-01T10:10:42;2.58;;;1.27;;
60018;SDS011;45870;42.528;26.740;2023-03-01T10:13:26;0.57;;;0.50;;
60018;SDS011;45870;42.528;26.740;2023-03-01T10:18:42;0.10;;;0.08;;
60018;SDS011;45870;42.528;26.740;2023-03-01T10:21:15;0.32;;;0.32;;
60018;SDS011;45870;42.528;26.740;2023-03-01T10:23:44;0.45;;;0.25;;
60018;SDS011;45870;42.528;26.740;2023-03-01T10:26:28;1.45;;;0.65;;
60018;SDS011;45870;42.528;26.740;2023-03-01T10:34:09;2.17;;;0.25;;
60018;SDS011;45870;42.528;26.740;2023-03-01T10:36:38;2.53;;;0.52;;
60018;SDS011;45870;42.528;26.740;2023-03-01T10:39:14;1.15;;;0.35;;
60018;SDS011;45870;42.528;26.740;2023-03-01T10:41:58;4.97;;;0.43;;
60018;SDS011;45870;42.528;26.740;2023-03-01T10:47:19;0.45;;;0.28;;
60018;SDS011;45870;42.528;26.740;2023-03-01T10:52:27;0.40;;;0.20;;
60018;SDS011;45870;42.528;26.740;2023-03-01T10:55:03;0.30;;;0.30;;
60018;SDS011;45870;42.528;26.740;2023-03-01T10:57:50;0.00;;;0.00;;
60018;SDS011;45870;42.528;26.740;2023-03-01T11:03:15;0.43;;;0.20;;
60018;SDS011;45870;42.528;26.740;2023-03-01T11:05:51;1.23;;;0.73;;
60018;SDS011;45870;42.528;26.740;2023-03-01T11:08:29;2.03;;;1.05;;
60018;SDS011;45870;42.528;26.740;2023-03-01T11:13:57;0.40;;;0.30;;
60018;SDS011;45870;42.528;26.740;2023-03-01T11:16:36;0.70;;;0.40;;
60018;SDS011;45870;42.528;26.740;2023-03-01T11:19:15;1.98;;;1.52;;
60018;SDS011;45870;42.528;26.740;2023-03-01T11:21:47;1.17;;;0.55;;
60018;SDS011;45870;42.528;26.740;2023-03-01T11:24:35;1.02;;;0.47;;
60018;SDS011;45870;42.528;26.740;2023-03-01T11:27:03;1.63;;;1.08;;
60018;SDS011;45870;42.528;26.740;2023-03-01T11:29:36;1.00;;;0.90;;
60018;SDS011;45870;42.528;26.740;2023-03-01T11:32:07;0.25;;;0.25;;
60018;SDS011;45870;42.528;26.740;2023-03-01T11:40:03;0.45;;;0.45;;
60018;SDS011;45870;42.528;26.740;2023-03-01T11:42:50;0.85;;;0.55;;
60018;SDS011;45870;42.528;26.740;2023-03-01T11:45:40;0.73;;;0.65;;
60018;SDS011;45870;42.528;26.740;2023-03-01T11:48:28;0.00;;;0.00;;
60018;SDS011;45870;42.528;26.740;2023-03-01T11:51:21;0.93;;;0.63;;
60018;SDS011;45870;42.528;26.740;2023-03-01T11:54:04;0.88;;;0.73;;
60018;SDS011;45870;42.528;26.740;2023-03-01T11:56:45;1.50;;;0.80;;
60018;SDS011;45870;42.528;26.740;2023-03-01T12:04:41;0.75;;;0.73;;
60018;SDS011;45870;42.528;26.740;2023-03-01T12:07:11;0.82;;;0.73;;
60018;SDS011;45870;42.528;26.740;2023-03-01T12:20:51;1.08;;;0.90;;
60018;SDS011;45870;42.528;26.740;2023-03-01T12:26:47;0.60;;;0.43;;
60018;SDS011;45870;42.528;26.740;2023-03-01T12:29:34;0.77;;;0.50;;
60018;SDS011;45870;42.528;26.740;2023-03-01T12:43:17;0.60;;;0.43;;
60018;SDS011;45870;42.528;26.740;2023-03-01T12:50:54;0.70;;;0.35;;
60018;SDS011;45870;42.528;26.740;2023-03-01T12:56:06;0.65;;;0.65;;
60018;SDS011;45870;42.528;26.740;2023-03-01T12:58:40;1.15;;;0.90;;
60018;SDS011;45870;42.528;26.740;2023-03-01T13:01:35;0.77;;;0.70;;
60018;SDS011;45870;42.528;26.740;2023-03-01T13:04:16;0.55;;;0.17;;
60018;SDS011;45870;42.528;26.740;2023-03-01T13:17:47;0.85;;;0.73;;
60018;SDS011;45870;42.528;26.740;2023-03-01T13:20:15;0.82;;;0.77;;
60018;SDS011;45870;42.528;26.740;2023-03-01T13:22:44;2.45;;;1.10;;
60018;SDS011;45870;42.528;26.740;2023-03-01T13:25:19;1.90;;;0.80;;
60018;SDS011;45870;42.528;26.740;2023-03-01T13:27:46;0.60;;;0.60;;
60018;SDS011;45870;42.528;26.740;2023-03-01T13:35:51;0.70;;;0.70;;
60018;SDS011;45870;42.528;26.740;2023-03-01T13:41:02;1.30;;;0.85;;
60018;SDS011;45870;42.528;26.740;2023-03-01T13:43:36;1.77;;;1.27;;
60018;SDS011;45870;42.528;26.740;2023-03-01T13:46:12;1.55;;;0.80;;
60018;SDS011;45870;42.528;26.740;2023-03-01T13:48:52;2.75;;;1.30;;
60018;SDS011;45870;42.528;26.740;2023-03-01T13:51:23;1.45;;;0.70;;
60018;SDS011;45870;42.528;26.740;2023-03-01T13:53:51;1.52;;;1.27;;
60018;SDS011;45870;42.528;26.740;2023-03-01T14:01:41;1.80;;;0.93;;
60018;SDS011;45870;42.528;26.740;2023-03-01T14:04:24;2.38;;;1.50;;
60018;SDS011;45870;42.528;26.740;2023-03-01T14:07:08;1.75;;;1.05;;
60018;SDS011;45870;42.528;26.740;2023-03-01T14:09:34;1.98;;;1.23;;
60018;SDS011;45870;42.528;26.740;2023-03-01T14:15:02;3.85;;;1.17;;
60018;SDS011;45870;42.528;26.740;2023-03-01T14:20:20;1.13;;;0.77;;
60018;SDS011;45870;42.528;26.740;2023-03-01T14:22:49;2.33;;;1.58;;
60018;SDS011;45870;42.528;26.740;2023-03-01T14:25:22;2.75;;;1.65;;
60018;SDS011;45870;42.528;26.740;2023-03-01T14:30:50;3.42;;;1.02;;
60018;SDS011;45870;42.528;26.740;2023-03-01T14:33:20;1.00;;;0.57;;
60018;SDS011;45870;42.528;26.740;2023-03-01T14:35:53;2.22;;;1.27;;
60018;SDS011;45870;42.528;26.740;2023-03-01T14:38:28;5.00;;;1.15;;
60018;SDS011;45870;42.528;26.740;2023-03-01T14:41:00;2.63;;;1.48;;
60018;SDS011;45870;42.528;26.740;2023-03-01T14:43:29;3.22;;;2.30;;
60018;SDS011;45870;42.528;26.740;2023-03-01T14:45:57;1.45;;;0.52;;
60018;SDS011;45870;42.528;26.740;2023-03-01T14:48:23;2.22;;;1.27;;
60018;SDS011;45870;42.528;26.740;2023-03-01T14:50:49;1.45;;;1.23;;
60018;SDS011;45870;42.528;26.740;2023-03-01T14:53:18;2.97;;;1.98;;
60018;SDS011;45870;42.528;26.740;2023-03-01T14:55:49;4.03;;;2.35;;
60018;SDS011;45870;42.528;26.740;2023-03-01T14:58:22;1.83;;;0.75;;
60018;SDS011;45870;42.528;26.740;2023-03-01T15:03:20;1.42;;;0.90;;
60018;SDS011;45870;42.528;26.740;2023-03-01T15:06:00;1.85;;;0.98;;
60018;SDS011;45870;42.528;26.740;2023-03-01T15:08:28;2.40;;;1.63;;
60018;SDS011;45870;42.528;26.740;2023-03-01T15:13:32;2.53;;;1.20;;
60018;SDS011;45870;42.528;26.740;2023-03-01T15:16:12;2.97;;;1.85;;
60018;SDS011;45870;42.528;26.740;2023-03-01T15:18:52;3.20;;;1.42;;
60018;SDS011;45870;42.528;26.740;2023-03-01T15:24:15;6.35;;;1.73;;
60018;SDS011;45870;42.528;26.740;2023-03-01T15:26:52;1.65;;;1.20;;
60018;SDS011;45870;42.528;26.740;2023-03-01T15:29:31;2.30;;;2.03;;
60018;SDS011;45870;42.528;26.740;2023-03-01T15:34:52;1.25;;;1.05;;
60018;SDS011;45870;42.528;26.740;2023-03-01T15:40:20;2.08;;;1.20;;
60018;SDS011;45870;42.528;26.740;2023-03-01T15:42:56;2.58;;;1.73;;
60018;SDS011;45870;42.528;26.740;2023-03-01T15:45:24;2.55;;;1.52;;
60018;SDS011;45870;42.528;26.740;2023-03-01T15:47:53;1.15;;;0.63;;
60018;SDS011;45870;42.528;26.740;2023-03-01T15:50:28;4.72;;;0.98;;
60018;SDS011;45870;42.528;26.740;2023-03-01T15:53:05;3.05;;;1.92;;
60018;SDS011;45870;42.528;26.740;2023-03-01T15:55:33;2.00;;;1.70;;
60018;SDS011;45870;42.528;26.740;2023-03-01T16:00:31;3.67;;;2.17;;
60018;SDS011;45870;42.528;26.740;2023-03-01T16:02:58;2.33;;;0.98;;
60018;SDS011;45870;42.528;26.740;2023-03-01T16:05:25;3.72;;;2.97;;
60018;SDS011;45870;42.528;26.740;2023-03-01T16:07:53;3.72;;;1.63;;
60018;SDS011;45870;42.528;26.740;2023-03-01T16:10:19;2.28;;;1.27;;
60018;SDS011;45870;42.528;26.740;2023-03-01T16:12:46;1.13;;;1.02;;
60018;SDS011;45870;42.528;26.740;2023-03-01T16:15:14;6.90;;;2.78;;
60018;SDS011;45870;42.528;26.740;2023-03-01T16:17:42;2.30;;;1.75;;
60018;SDS011;45870;42.528;26.740;2023-03-01T16:20:08;3.10;;;1.27;;
60018;SDS011;45870;42.528;26.740;2023-03-01T16:22:34;2.00;;;1.35;;
60018;SDS011;45870;42.528;26.740;2023-03-01T16:25:00;2.55;;;1.20;;
60018;SDS011;45870;42.528;26.740;2023-03-01T16:27:27;1.70;;;0.45;;
60018;SDS011;45870;42.528;26.740;2023-03-01T16:29:53;0.77;;;0.55;;
60018;SDS011;45870;42.528;26.740;2023-03-01T16:32:18;3.08;;;0.88;;
60018;SDS011;45870;42.528;26.740;2023-03-01T16:34:44;0.47;;;0.47;;
60018;SDS011;45870;42.528;26.740;2023-03-01T16:37:09;1.27;;;0.93;;
60018;SDS011;45870;42.528;26.740;2023-03-01T16:39:37;3.05;;;0.98;;
60018;SDS011;45870;42.528;26.740;2023-03-01T16:42:03;1.08;;;0.90;;
60018;SDS011;45870;42.528;26.740;2023-03-01T16:44:29;2.42;;;1.38;;
60018;SDS011;45870;42.528;26.740;2023-03-01T16:46:55;0.85;;;0.82;;
60018;SDS011;45870;42.528;26.740;2023-03-01T16:49:21;3.95;;;1.02;;
60018;SDS011;45870;42.528;26.740;2023-03-01T16:51:46;2.33;;;1.42;;
60018;SDS011;45870;42.528;26.740;2023-03-01T16:54:12;2.03;;;1.00;;
60018;SDS011;45870;42.528;26.740;2023-03-01T16:56:37;1.70;;;1.13;;